sensor_id;sensor_type;location;lat;lon;timestamp;P1;durP1;ratioP1;P2;durP2;ratioP2
946;SDS011;460;48.734;9.152;2024-03-23T00:51:38;4.40;;;3.77;;
946;SDS011;460;48.734;9.152;2024-03-23T00:54:04;4.47;;;4.07;;
946;SDS011;460;48.734;9.152;2024-03-23T00:56:31;3.33;;;3.03;;
946;SDS011;460;48.734;9.152;2024-03-23T00:58:57;4.10;;;3.27;;
946;SDS011;460;48.734;9.152;2024-03-23T01:01:24;3.90;;;3.60;;
946;SDS011;460;48.734;9.152;2024-03-23T01:03:50;5.40;;;3.77;;
946;SDS011;460;48.734;9.152;2024-03-23T01:06:18;4.53;;;3.50;;
946;SDS011;460;48.734;9.152;2024-03-23T01:08:46;5.63;;;2.53;;
946;SDS011;460;48.734;9.152;2024-03-23T01:11:13;3.97;;;3.40;;
946;SDS011;460;48.734;9.152;2024-03-23T01:13:41;3.60;;;3.17;;
946;SDS011;460;48.734;9.152;2024-03-23T01:16:07;3.90;;;3.30;;
946;SDS011;460;48.734;9.152;2024-03-23T01:18:33;3.90;;;3.30;;
946;SDS011;460;48.734;9.152;2024-03-23T01:20:59;2.80;;;2.60;;
946;SDS011;460;48.734;9.152;2024-03-23T01:23:26;3.80;;;3.13;;
946;SDS011;460;48.734;9.152;2024-03-23T01:25:53;3.90;;;3.50;;
946;SDS011;460;48.734;9.152;2024-03-23T01:28:21;3.70;;;3.23;;
946;SDS011;460;48.734;9.152;2024-03-23T01:30:47;3.23;;;2.90;;
946;SDS011;460;48.734;9.152;2024-03-23T01:33:14;3.17;;;2.87;;
946;SDS011;460;48.734;9.152;2024-03-23T01:35:40;3.63;;;3.27;;
946;SDS011;460;48.734;9.152;2024-03-23T01:38:07;3.53;;;3.20;;
946;SDS011;460;48.734;9.152;2024-03-23T01:40:32;3.30;;;3.00;;
946;SDS011;460;48.734;9.152;2024-03-23T01:43:03;3.50;;;3.20;;
946;SDS011;460;48.734;9.152;2024-03-23T01:45:30;6.03;;;3.43;;
946;SDS011;460;48.734;9.152;2024-03-23T01:47:57;3.53;;;3.23;;
946;SDS011;460;48.734;9.152;2024-03-23T01:50:23;3.70;;;2.80;;
946;SDS011;460;48.734;9.152;2024-03-23T01:52:51;3.13;;;2.83;;
946;SDS011;460;48.734;9.152;2024-03-23T01:55:17;3.37;;;3.07;;
946;SDS011;460;48.734;9.152;2024-03-23T01:57:43;4.83;;;2.97;;
946;SDS011;460;48.734;9.152;2024-03-23T02:00:11;4.13;;;3.00;;
946;SDS011;460;48.734;9.152;2024-03-23T02:02:42;3.43;;;3.00;;
946;SDS011;460;48.734;9.152;2024-03-23T02:05:09;4.27;;;3.43;;
946;SDS011;460;48.734;9.152;2024-03-23T02:07:36;4.33;;;3.53;;
946;SDS011;460;48.734;9.152;2024-03-23T02:10:03;4.10;;;3.47;;
946;SDS011;460;48.734;9.152;2024-03-23T02:12:31;3.30;;;3.07;;
946;SDS011;460;48.734;9.152;2024-03-23T02:14:59;3.63;;;2.80;;
946;SDS011;460;48.734;9.152;2024-03-23T02:17:30;3.20;;;2.93;;
946;SDS011;460;48.734;9.152;2024-03-23T02:19:58;9.90;;;3.97;;
946;SDS011;460;48.734;9.152;2024-03-23T02:22:33;3.50;;;3.20;;
946;SDS011;460;48.734;9.152;2024-03-23T02:25:02;6.47;;;3.80;;
946;SDS011;460;48.734;9.152;2024-03-23T02:27:29;6.43;;;3.23;;
946;SDS011;460;48.734;9.152;2024-03-23T02:29:55;3.33;;;3.00;;
946;SDS011;460;48.734;9.152;2024-03-23T02:32:22;4.63;;;3.93;;
946;SDS011;460;48.734;9.152;2024-03-23T02:34:48;3.73;;;3.43;;
946;SDS011;460;48.734;9.152;2024-03-23T02:37:16;3.60;;;3.30;;
946;SDS011;460;48.734;9.152;2024-03-23T02:39:43;3.80;;;3.03;;
946;SDS011;460;48.734;9.152;2024-03-23T02:42:11;3.53;;;3.23;;
946;SDS011;460;48.734;9.152;2024-03-23T02:44:38;3.80;;;3.50;;
946;SDS011;460;48.734;9.152;2024-03-23T02:47:06;5.70;;;3.90;;
946;SDS011;460;48.734;9.152;2024-03-23T02:49:33;5.07;;;3.93;;
946;SDS011;460;48.734;9.152;2024-03-23T02:52:01;4.77;;;3.67;;
946;SDS011;460;48.734;9.152;2024-03-23T02:54:28;3.70;;;3.13;;
946;SDS011;460;48.734;9.152;2024-03-23T02:56:56;3.60;;;3.30;;
946;SDS011;460;48.734;9.152;2024-03-23T02:59:24;4.07;;;3.27;;
946;SDS011;460;48.734;9.152;2024-03-23T03:01:52;4.57;;;3.90;;
946;SDS011;460;48.734;9.152;2024-03-23T03:04:19;6.00;;;3.40;;
946;SDS011;460;48.734;9.152;2024-03-23T03:06:47;3.17;;;2.87;;
946;SDS011;460;48.734;9.152;2024-03-23T03:09:14;3.63;;;3.33;;
946;SDS011;460;48.734;9.152;2024-03-23T03:11:41;3.87;;;3.43;;
946;SDS011;460;48.734;9.152;2024-03-23T03:14:08;3.20;;;3.00;;
946;SDS011;460;48.734;9.152;2024-03-23T03:16:38;2.80;;;2.60;;
946;SDS011;460;48.734;9.152;2024-03-23T03:19:03;4.23;;;3.77;;
946;SDS011;460;48.734;9.152;2024-03-23T03:21:31;3.37;;;3.03;;
946;SDS011;460;48.734;9.152;2024-03-23T03:23:57;2.90;;;2.70;;
946;SDS011;460;48.734;9.152;2024-03-23T03:26:24;3.30;;;3.00;;
946;SDS011;460;48.734;9.152;2024-03-23T03:28:51;3.37;;;3.07;;
946;SDS011;460;48.734;9.152;2024-03-23T03:31:19;4.00;;;3.70;;
946;SDS011;460;48.734;9.152;2024-03-23T03:33:49;4.00;;;3.37;;
946;SDS011;460;48.734;9.152;2024-03-23T03:36:17;3.43;;;3.03;;
946;SDS011;460;48.734;9.152;2024-03-23T03:38:45;3.80;;;3.50;;
946;SDS011;460;48.734;9.152;2024-03-23T03:41:12;3.73;;;3.43;;
946;SDS011;460;48.734;9.152;2024-03-23T03:43:42;3.63;;;3.33;;
946;SDS011;460;48.734;9.152;2024-03-23T03:46:09;4.13;;;3.60;;
946;SDS011;460;48.734;9.152;2024-03-23T03:48:36;8.50;;;3.80;;
946;SDS011;460;48.734;9.152;2024-03-23T03:51:04;4.10;;;3.70;;
946;SDS011;460;48.734;9.152;2024-03-23T03:53:30;5.23;;;3.77;;
946;SDS011;460;48.734;9.152;2024-03-23T03:56:00;3.87;;;3.50;;
946;SDS011;460;48.734;9.152;2024-03-23T03:58:26;4.20;;;3.83;;
946;SDS011;460;48.734;9.152;2024-03-23T04:00:52;5.80;;;4.00;;
946;SDS011;460;48.734;9.152;2024-03-23T04:03:18;4.03;;;3.70;;
946;SDS011;460;48.734;9.152;2024-03-23T04:05:49;3.93;;;3.53;;
946;SDS011;460;48.734;9.152;2024-03-23T04:08:17;3.60;;;3.30;;
946;SDS011;460;48.734;9.152;2024-03-23T04:10:44;3.80;;;3.40;;
946;SDS011;460;48.734;9.152;2024-03-23T04:13:10;4.97;;;4.33;;
946;SDS011;460;48.734;9.152;2024-03-23T04:15:37;4.50;;;3.37;;
946;SDS011;460;48.734;9.152;2024-03-23T04:18:03;5.70;;;4.10;;
946;SDS011;460;48.734;9.152;2024-03-23T04:20:30;4.77;;;3.93;;
946;SDS011;460;48.734;9.152;2024-03-23T04:22:57;6.53;;;3.97;;
946;SDS011;460;48.734;9.152;2024-03-23T04:25:25;6.40;;;4.00;;
946;SDS011;460;48.734;9.152;2024-03-23T04:27:51;4.67;;;4.27;;
946;SDS011;460;48.734;9.152;2024-03-23T04:30:18;6.17;;;3.10;;
946;SDS011;460;48.734;9.152;2024-03-23T04:32:44;3.40;;;3.20;;
946;SDS011;460;48.734;9.152;2024-03-23T04:35:11;3.33;;;3.07;;
946;SDS011;460;48.734;9.152;2024-03-23T04:37:38;4.63;;;3.10;;
946;SDS011;460;48.734;9.152;2024-03-23T04:40:07;5.53;;;5.03;;
946;SDS011;460;48.734;9.152;2024-03-23T04:42:35;4.00;;;3.60;;
946;SDS011;460;48.734;9.152;2024-03-23T04:45:02;5.40;;;3.70;;
946;SDS011;460;48.734;9.152;2024-03-23T04:47:31;3.60;;;3.30;;
946;SDS011;460;48.734;9.152;2024-03-23T04:49:58;5.50;;;3.70;;
946;SDS011;460;48.734;9.152;2024-03-23T04:52:26;6.23;;;3.80;;
946;SDS011;460;48.734;9.152;2024-03-23T04:54:53;3.70;;;3.33;;
946;SDS011;460;48.734;9.152;2024-03-23T04:57:18;5.80;;;4.20;;
946;SDS011;460;48.734;9.152;2024-03-23T04:59:47;6.00;;;5.40;;
946;SDS011;460;48.734;9.152;2024-03-23T05:02:13;6.40;;;5.80;;
946;SDS011;460;48.734;9.152;2024-03-23T05:04:40;7.10;;;4.60;;
946;SDS011;460;48.734;9.152;2024-03-23T05:07:06;7.80;;;6.60;;
946;SDS011;460;48.734;9.152;2024-03-23T05:09:33;8.40;;;7.60;;
946;SDS011;460;48.734;9.152;2024-03-23T05:11:59;7.77;;;6.10;;
946;SDS011;460;48.734;9.152;2024-03-23T05:14:26;7.00;;;6.27;;
946;SDS011;460;48.734;9.152;2024-03-23T05:16:53;7.60;;;6.67;;
946;SDS011;460;48.734;9.152;2024-03-23T05:19:20;11.10;;;9.10;;
946;SDS011;460;48.734;9.152;2024-03-23T05:21:47;11.03;;;9.50;;
946;SDS011;460;48.734;9.152;2024-03-23T05:24:14;13.27;;;9.87;;
946;SDS011;460;48.734;9.152;2024-03-23T05:26:39;11.37;;;9.90;;
946;SDS011;460;48.734;9.152;2024-03-23T05:29:06;13.57;;;11.77;;
946;SDS011;460;48.734;9.152;2024-03-23T05:31:35;15.00;;;11.67;;
946;SDS011;460;48.734;9.152;2024-03-23T05:34:04;13.90;;;10.47;;
946;SDS011;460;48.734;9.152;2024-03-23T05:36:29;15.17;;;11.83;;
946;SDS011;460;48.734;9.152;2024-03-23T05:38:57;15.03;;;11.57;;
946;SDS011;460;48.734;9.152;2024-03-23T05:41:23;14.20;;;11.20;;
946;SDS011;460;48.734;9.152;2024-03-23T05:43:50;15.80;;;10.97;;
946;SDS011;460;48.734;9.152;2024-03-23T05:46:15;16.93;;;11.73;;
946;SDS011;460;48.734;9.152;2024-03-23T05:48:43;14.40;;;11.93;;
946;SDS011;460;48.734;9.152;2024-03-23T05:51:10;14.93;;;12.13;;
946;SDS011;460;48.734;9.152;2024-03-23T05:53:37;13.17;;;9.80;;
946;SDS011;460;48.734;9.152;2024-03-23T05:56:03;9.37;;;7.73;;
946;SDS011;460;48.734;9.152;2024-03-23T05:58:31;9.50;;;7.53;;
946;SDS011;460;48.734;9.152;2024-03-23T06:00:57;9.80;;;7.33;;
946;SDS011;460;48.734;9.152;2024-03-23T06:03:25;6.73;;;5.30;;
946;SDS011;460;48.734;9.152;2024-03-23T06:05:51;10.17;;;6.00;;
946;SDS011;460;48.734;9.152;2024-03-23T06:08:19;9.03;;;6.43;;
946;SDS011;460;48.734;9.152;2024-03-23T06:10:45;4.57;;;3.80;;
946;SDS011;460;48.734;9.152;2024-03-23T06:13:12;4.87;;;3.17;;
946;SDS011;460;48.734;9.152;2024-03-23T06:15:38;4.23;;;3.37;;
946;SDS011;460;48.734;9.152;2024-03-23T06:18:05;5.00;;;3.03;;
946;SDS011;460;48.734;9.152;2024-03-23T06:20:32;2.80;;;2.30;;
946;SDS011;460;48.734;9.152;2024-03-23T06:23:00;3.00;;;2.10;;
946;SDS011;460;48.734;9.152;2024-03-23T06:25:27;2.70;;;2.50;;
946;SDS011;460;48.734;9.152;2024-03-23T06:27:54;2.10;;;1.90;;
946;SDS011;460;48.734;9.152;2024-03-23T06:30:19;2.77;;;1.90;;
946;SDS011;460;48.734;9.152;2024-03-23T06:32:46;2.10;;;1.87;;
946;SDS011;460;48.734;9.152;2024-03-23T06:35:12;1.53;;;1.13;;
946;SDS011;460;48.734;9.152;2024-03-23T06:37:39;1.27;;;0.95;;
946;SDS011;460;48.734;9.152;2024-03-23T06:40:06;2.25;;;1.15;;
946;SDS011;460;48.734;9.152;2024-03-23T06:42:36;0.80;;;0.80;;
946;SDS011;460;48.734;9.152;2024-03-23T06:45:02;0.70;;;0.57;;
946;SDS011;460;48.734;9.152;2024-03-23T06:47:29;0.80;;;0.80;;
946;SDS011;460;48.734;9.152;2024-03-23T06:49:55;1.20;;;1.10;;
946;SDS011;460;48.734;9.152;2024-03-23T06:52:22;1.15;;;1.05;;
946;SDS011;460;48.734;9.152;2024-03-23T06:54:48;1.57;;;1.03;;
946;SDS011;460;48.734;9.152;2024-03-23T06:57:15;1.63;;;1.40;;
946;SDS011;460;48.734;9.152;2024-03-23T06:59:42;2.60;;;1.67;;
946;SDS011;460;48.734;9.152;2024-03-23T07:02:09;0.93;;;0.82;;
946;SDS011;460;48.734;9.152;2024-03-23T07:04:34;3.30;;;2.10;;
946;SDS011;460;48.734;9.152;2024-03-23T07:07:01;1.67;;;1.17;;
946;SDS011;460;48.734;9.152;2024-03-23T07:09:27;1.70;;;1.53;;
946;SDS011;460;48.734;9.152;2024-03-23T07:11:54;0.90;;;0.90;;
946;SDS011;460;48.734;9.152;2024-03-23T07:14:22;0.60;;;0.60;;
946;SDS011;460;48.734;9.152;2024-03-23T07:16:52;0.98;;;0.88;;
946;SDS011;460;48.734;9.152;2024-03-23T07:19:18;2.80;;;0.80;;
946;SDS011;460;48.734;9.152;2024-03-23T07:21:45;1.42;;;1.25;;
946;SDS011;460;48.734;9.152;2024-03-23T07:24:11;2.20;;;0.87;;
946;SDS011;460;48.734;9.152;2024-03-23T07:26:38;0.80;;;0.63;;
946;SDS011;460;48.734;9.152;2024-03-23T07:29:04;0.50;;;0.50;;
946;SDS011;460;48.734;9.152;2024-03-23T07:31:31;1.00;;;0.90;;
946;SDS011;460;48.734;9.152;2024-03-23T07:33:58;0.73;;;0.68;;
946;SDS011;460;48.734;9.152;2024-03-23T07:36:25;0.57;;;0.52;;
946;SDS011;460;48.734;9.152;2024-03-23T07:38:51;0.83;;;0.80;;
946;SDS011;460;48.734;9.152;2024-03-23T07:41:19;0.70;;;0.67;;
946;SDS011;460;48.734;9.152;2024-03-23T07:43:46;1.57;;;0.70;;
946;SDS011;460;48.734;9.152;2024-03-23T07:46:14;0.90;;;0.85;;
946;SDS011;460;48.734;9.152;2024-03-23T07:48:41;0.60;;;0.60;;
946;SDS011;460;48.734;9.152;2024-03-23T07:51:15;0.60;;;0.60;;
946;SDS011;460;48.734;9.152;2024-03-23T07:53:42;0.60;;;0.60;;
946;SDS011;460;48.734;9.152;2024-03-23T07:56:11;0.70;;;0.50;;
946;SDS011;460;48.734;9.152;2024-03-23T07:58:37;0.50;;;0.40;;
946;SDS011;460;48.734;9.152;2024-03-23T08:01:04;0.60;;;0.53;;
946;SDS011;460;48.734;9.152;2024-03-23T08:03:33;0.80;;;0.65;;
946;SDS011;460;48.734;9.152;2024-03-23T08:06:06;1.95;;;0.68;;
946;SDS011;460;48.734;9.152;2024-03-23T08:08:33;0.50;;;0.40;;
946;SDS011;460;48.734;9.152;2024-03-23T08:11:00;0.50;;;0.50;;
946;SDS011;460;48.734;9.152;2024-03-23T08:13:26;0.90;;;0.70;;
946;SDS011;460;48.734;9.152;2024-03-23T08:15:56;0.93;;;0.70;;
946;SDS011;460;48.734;9.152;2024-03-23T08:18:22;0.70;;;0.70;;
946;SDS011;460;48.734;9.152;2024-03-23T08:20:55;0.63;;;0.63;;
946;SDS011;460;48.734;9.152;2024-03-23T08:23:21;1.30;;;0.80;;
946;SDS011;460;48.734;9.152;2024-03-23T08:25:49;0.80;;;0.80;;
946;SDS011;460;48.734;9.152;2024-03-23T08:28:15;1.35;;;1.08;;
946;SDS011;460;48.734;9.152;2024-03-23T08:30:42;1.55;;;1.30;;
946;SDS011;460;48.734;9.152;2024-03-23T08:33:08;1.42;;;0.98;;
946;SDS011;460;48.734;9.152;2024-03-23T08:35:34;0.90;;;0.90;;
946;SDS011;460;48.734;9.152;2024-03-23T08:38:01;1.30;;;1.20;;
946;SDS011;460;48.734;9.152;2024-03-23T08:40:27;1.10;;;1.00;;
946;SDS011;460;48.734;9.152;2024-03-23T08:42:54;1.20;;;1.10;;
946;SDS011;460;48.734;9.152;2024-03-23T08:45:21;0.93;;;0.93;;
946;SDS011;460;48.734;9.152;2024-03-23T08:47:47;2.43;;;1.83;;
946;SDS011;460;48.734;9.152;2024-03-23T08:50:14;0.80;;;0.80;;
946;SDS011;460;48.734;9.152;2024-03-23T08:52:40;2.00;;;1.67;;
946;SDS011;460;48.734;9.152;2024-03-23T08:55:07;1.35;;;1.00;;
946;SDS011;460;48.734;9.152;2024-03-23T08:57:34;5.23;;;1.63;;
946;SDS011;460;48.734;9.152;2024-03-23T09:00:03;1.60;;;1.50;;
946;SDS011;460;48.734;9.152;2024-03-23T09:02:31;1.85;;;1.60;;
946;SDS011;460;48.734;9.152;2024-03-23T09:04:58;3.07;;;1.77;;
946;SDS011;460;48.734;9.152;2024-03-23T09:07:29;5.60;;;1.77;;
946;SDS011;460;48.734;9.152;2024-03-23T09:09:56;2.20;;;2.00;;
946;SDS011;460;48.734;9.152;2024-03-23T09:12:22;2.27;;;2.00;;
946;SDS011;460;48.734;9.152;2024-03-23T09:14:49;2.23;;;1.63;;
946;SDS011;460;48.734;9.152;2024-03-23T09:17:16;1.80;;;1.70;;
946;SDS011;460;48.734;9.152;2024-03-23T09:19:43;4.77;;;2.70;;
946;SDS011;460;48.734;9.152;2024-03-23T09:22:09;4.27;;;2.10;;
946;SDS011;460;48.734;9.152;2024-03-23T09:24:36;2.95;;;2.38;;
946;SDS011;460;48.734;9.152;2024-03-23T09:27:02;4.53;;;2.60;;
946;SDS011;460;48.734;9.152;2024-03-23T09:29:29;3.90;;;3.20;;
946;SDS011;460;48.734;9.152;2024-03-23T09:31:55;8.03;;;3.50;;
946;SDS011;460;48.734;9.152;2024-03-23T09:34:23;3.95;;;3.03;;
946;SDS011;460;48.734;9.152;2024-03-23T09:36:50;3.23;;;2.63;;
946;SDS011;460;48.734;9.152;2024-03-23T09:39:17;4.70;;;2.90;;
946;SDS011;460;48.734;9.152;2024-03-23T09:41:44;5.40;;;3.13;;
946;SDS011;460;48.734;9.152;2024-03-23T09:44:11;2.80;;;2.10;;
946;SDS011;460;48.734;9.152;2024-03-23T09:46:37;4.53;;;3.40;;
946;SDS011;460;48.734;9.152;2024-03-23T09:49:05;8.33;;;3.70;;
946;SDS011;460;48.734;9.152;2024-03-23T09:51:35;5.07;;;2.67;;
946;SDS011;460;48.734;9.152;2024-03-23T09:54:02;5.90;;;4.00;;
946;SDS011;460;48.734;9.152;2024-03-23T09:56:28;5.20;;;2.90;;
946;SDS011;460;48.734;9.152;2024-03-23T09:58:59;4.13;;;3.07;;
946;SDS011;460;48.734;9.152;2024-03-23T10:01:26;7.63;;;3.73;;
946;SDS011;460;48.734;9.152;2024-03-23T10:03:53;4.73;;;3.40;;
946;SDS011;460;48.734;9.152;2024-03-23T10:06:21;6.93;;;4.37;;
946;SDS011;460;48.734;9.152;2024-03-23T10:08:51;3.80;;;3.47;;
946;SDS011;460;48.734;9.152;2024-03-23T10:11:18;13.00;;;3.50;;
946;SDS011;460;48.734;9.152;2024-03-23T10:13:46;5.73;;;3.50;;
946;SDS011;460;48.734;9.152;2024-03-23T10:16:13;4.13;;;3.73;;
946;SDS011;460;48.734;9.152;2024-03-23T10:18:48;3.90;;;3.33;;
946;SDS011;460;48.734;9.152;2024-03-23T10:21:14;4.70;;;3.77;;
946;SDS011;460;48.734;9.152;2024-03-23T10:23:43;3.37;;;3.00;;
946;SDS011;460;48.734;9.152;2024-03-23T10:26:17;6.53;;;3.10;;
946;SDS011;460;48.734;9.152;2024-03-23T10:28:53;4.50;;;3.10;;
946;SDS011;460;48.734;9.152;2024-03-23T10:31:20;3.73;;;3.00;;
946;SDS011;460;48.734;9.152;2024-03-23T10:33:47;10.47;;;3.70;;
946;SDS011;460;48.734;9.152;2024-03-23T10:36:14;4.03;;;3.60;;
946;SDS011;460;48.734;9.152;2024-03-23T10:38:41;6.40;;;3.00;;
946;SDS011;460;48.734;9.152;2024-03-23T10:41:08;11.50;;;4.20;;
946;SDS011;460;48.734;9.152;2024-03-23T10:43:37;10.43;;;3.50;;
946;SDS011;460;48.734;9.152;2024-03-23T10:46:03;4.63;;;3.50;;
946;SDS011;460;48.734;9.152;2024-03-23T10:48:31;9.90;;;3.73;;
946;SDS011;460;48.734;9.152;2024-03-23T10:50:57;5.10;;;3.43;;
946;SDS011;460;48.734;9.152;2024-03-23T10:53:25;6.83;;;4.10;;
946;SDS011;460;48.734;9.152;2024-03-23T10:55:52;3.90;;;2.77;;
946;SDS011;460;48.734;9.152;2024-03-23T10:58:21;6.47;;;3.50;;
946;SDS011;460;48.734;9.152;2024-03-23T11:00:53;3.10;;;2.28;;
946;SDS011;460;48.734;9.152;2024-03-23T11:03:29;3.53;;;2.03;;
946;SDS011;460;48.734;9.152;2024-03-23T11:05:56;3.00;;;1.90;;
946;SDS011;460;48.734;9.152;2024-03-23T11:08:36;2.20;;;2.00;;
946;SDS011;460;48.734;9.152;2024-03-23T11:11:16;2.72;;;2.53;;
946;SDS011;460;48.734;9.152;2024-03-23T11:13:43;3.42;;;2.35;;
946;SDS011;460;48.734;9.152;2024-03-23T11:16:15;4.65;;;2.60;;
946;SDS011;460;48.734;9.152;2024-03-23T11:18:42;4.55;;;2.00;;
946;SDS011;460;48.734;9.152;2024-03-23T11:21:10;4.32;;;1.85;;
946;SDS011;460;48.734;9.152;2024-03-23T11:26:41;3.45;;;2.22;;
946;SDS011;460;48.734;9.152;2024-03-23T11:29:10;2.63;;;2.07;;
946;SDS011;460;48.734;9.152;2024-03-23T11:31:38;7.68;;;3.63;;
946;SDS011;460;48.734;9.152;2024-03-23T11:34:10;4.47;;;2.50;;
946;SDS011;460;48.734;9.152;2024-03-23T11:36:37;4.20;;;2.33;;
946;SDS011;460;48.734;9.152;2024-03-23T11:39:11;6.83;;;2.40;;
946;SDS011;460;48.734;9.152;2024-03-23T11:41:45;3.35;;;2.70;;
946;SDS011;460;48.734;9.152;2024-03-23T11:44:14;3.08;;;2.33;;
946;SDS011;460;48.734;9.152;2024-03-23T11:46:43;2.65;;;2.45;;
946;SDS011;460;48.734;9.152;2024-03-23T11:49:19;3.33;;;2.33;;
946;SDS011;460;48.734;9.152;2024-03-23T11:51:48;2.33;;;1.85;;
946;SDS011;460;48.734;9.152;2024-03-23T11:54:14;3.08;;;2.03;;
946;SDS011;460;48.734;9.152;2024-03-23T11:56:41;1.70;;;1.60;;
946;SDS011;460;48.734;9.152;2024-03-23T11:59:29;8.25;;;2.95;;
946;SDS011;460;48.734;9.152;2024-03-23T12:01:58;2.95;;;1.90;;
946;SDS011;460;48.734;9.152;2024-03-23T12:04:25;3.80;;;2.08;;
946;SDS011;460;48.734;9.152;2024-03-23T12:09:36;4.73;;;2.33;;
946;SDS011;460;48.734;9.152;2024-03-23T12:12:10;3.50;;;1.73;;
946;SDS011;460;48.734;9.152;2024-03-23T12:14:39;5.50;;;1.77;;
946;SDS011;460;48.734;9.152;2024-03-23T12:17:11;1.90;;;1.40;;
946;SDS011;460;48.734;9.152;2024-03-23T12:19:38;2.60;;;1.17;;
946;SDS011;460;48.734;9.152;2024-03-23T12:22:06;1.70;;;1.33;;
946;SDS011;460;48.734;9.152;2024-03-23T12:24:33;2.73;;;1.67;;
946;SDS011;460;48.734;9.152;2024-03-23T12:27:01;5.03;;;1.40;;
946;SDS011;460;48.734;9.152;2024-03-23T12:29:28;8.60;;;3.40;;
946;SDS011;460;48.734;9.152;2024-03-23T12:31:56;2.43;;;1.33;;
946;SDS011;460;48.734;9.152;2024-03-23T12:34:25;2.40;;;1.60;;
946;SDS011;460;48.734;9.152;2024-03-23T12:36:52;2.93;;;1.77;;
946;SDS011;460;48.734;9.152;2024-03-23T12:39:18;3.57;;;2.93;;
946;SDS011;460;48.734;9.152;2024-03-23T12:41:45;4.57;;;1.63;;
946;SDS011;460;48.734;9.152;2024-03-23T12:44:11;2.30;;;1.90;;
946;SDS011;460;48.734;9.152;2024-03-23T12:46:38;4.17;;;2.23;;
946;SDS011;460;48.734;9.152;2024-03-23T12:49:04;3.20;;;2.00;;
946;SDS011;460;48.734;9.152;2024-03-23T12:51:33;5.70;;;2.03;;
946;SDS011;460;48.734;9.152;2024-03-23T12:53:59;5.23;;;2.60;;
946;SDS011;460;48.734;9.152;2024-03-23T12:56:26;2.27;;;1.97;;
946;SDS011;460;48.734;9.152;2024-03-23T12:58:53;9.47;;;2.67;;
946;SDS011;460;48.734;9.152;2024-03-23T13:01:22;5.33;;;2.43;;
946;SDS011;460;48.734;9.152;2024-03-23T13:03:48;4.27;;;2.37;;
946;SDS011;460;48.734;9.152;2024-03-23T13:06:15;5.83;;;2.83;;
946;SDS011;460;48.734;9.152;2024-03-23T13:08:42;4.97;;;2.80;;
946;SDS011;460;48.734;9.152;2024-03-23T13:11:10;4.17;;;2.43;;
946;SDS011;460;48.734;9.152;2024-03-23T13:13:36;9.23;;;3.57;;
946;SDS011;460;48.734;9.152;2024-03-23T13:16:03;3.63;;;2.40;;
946;SDS011;460;48.734;9.152;2024-03-23T13:18:30;4.70;;;2.50;;
946;SDS011;460;48.734;9.152;2024-03-23T13:20:58;4.27;;;2.60;;
946;SDS011;460;48.734;9.152;2024-03-23T13:23:24;3.70;;;2.40;;
946;SDS011;460;48.734;9.152;2024-03-23T13:25:53;4.17;;;2.67;;
946;SDS011;460;48.734;9.152;2024-03-23T13:28:19;3.13;;;2.37;;
946;SDS011;460;48.734;9.152;2024-03-23T13:30:50;4.33;;;2.20;;
946;SDS011;460;48.734;9.152;2024-03-23T13:33:16;3.53;;;1.77;;
946;SDS011;460;48.734;9.152;2024-03-23T13:35:48;2.67;;;1.87;;
946;SDS011;460;48.734;9.152;2024-03-23T13:38:15;1.83;;;1.07;;
946;SDS011;460;48.734;9.152;2024-03-23T13:40:48;7.90;;;1.30;;
946;SDS011;460;48.734;9.152;2024-03-23T13:43:17;2.27;;;1.30;;
946;SDS011;460;48.734;9.152;2024-03-23T13:45:44;5.20;;;1.13;;
946;SDS011;460;48.734;9.152;2024-03-23T13:48:11;1.27;;;1.00;;
946;SDS011;460;48.734;9.152;2024-03-23T13:50:37;3.93;;;1.27;;
946;SDS011;460;48.734;9.152;2024-03-23T13:53:04;3.60;;;2.30;;
946;SDS011;460;48.734;9.152;2024-03-23T13:55:29;1.27;;;1.10;;
946;SDS011;460;48.734;9.152;2024-03-23T13:57:56;1.43;;;1.20;;
946;SDS011;460;48.734;9.152;2024-03-23T14:00:24;1.10;;;1.00;;
946;SDS011;460;48.734;9.152;2024-03-23T14:02:51;1.30;;;1.20;;
946;SDS011;460;48.734;9.152;2024-03-23T14:05:16;1.33;;;1.20;;
946;SDS011;460;48.734;9.152;2024-03-23T14:07:43;3.50;;;1.50;;
946;SDS011;460;48.734;9.152;2024-03-23T14:10:09;2.37;;;1.60;;
946;SDS011;460;48.734;9.152;2024-03-23T14:12:36;8.43;;;2.57;;
946;SDS011;460;48.734;9.152;2024-03-23T14:15:05;1.30;;;1.20;;
946;SDS011;460;48.734;9.152;2024-03-23T14:17:33;1.47;;;1.37;;
946;SDS011;460;48.734;9.152;2024-03-23T14:19:59;2.33;;;1.10;;
946;SDS011;460;48.734;9.152;2024-03-23T14:22:26;2.10;;;1.00;;
946;SDS011;460;48.734;9.152;2024-03-23T14:24:52;1.17;;;0.90;;
946;SDS011;460;48.734;9.152;2024-03-23T14:27:19;1.93;;;0.77;;
946;SDS011;460;48.734;9.152;2024-03-23T14:29:45;3.37;;;1.23;;
946;SDS011;460;48.734;9.152;2024-03-23T14:32:12;1.07;;;0.97;;
946;SDS011;460;48.734;9.152;2024-03-23T14:34:39;2.70;;;1.17;;
946;SDS011;460;48.734;9.152;2024-03-23T14:37:06;1.70;;;0.93;;
946;SDS011;460;48.734;9.152;2024-03-23T14:39:32;1.00;;;0.83;;
946;SDS011;460;48.734;9.152;2024-03-23T14:42:00;2.37;;;1.67;;
946;SDS011;460;48.734;9.152;2024-03-23T14:44:26;6.93;;;2.50;;
946;SDS011;460;48.734;9.152;2024-03-23T14:46:53;3.07;;;1.70;;
946;SDS011;460;48.734;9.152;2024-03-23T14:49:20;1.73;;;1.10;;
946;SDS011;460;48.734;9.152;2024-03-23T14:51:49;1.40;;;1.30;;
946;SDS011;460;48.734;9.152;2024-03-23T14:54:15;1.80;;;1.00;;
946;SDS011;460;48.734;9.152;2024-03-23T14:56:42;1.27;;;1.07;;
946;SDS011;460;48.734;9.152;2024-03-23T14:59:08;2.00;;;1.10;;
946;SDS011;460;48.734;9.152;2024-03-23T15:01:34;1.70;;;1.00;;
946;SDS011;460;48.734;9.152;2024-03-23T15:04:00;1.98;;;1.10;;
946;SDS011;460;48.734;9.152;2024-03-23T15:06:28;8.10;;;1.27;;
946;SDS011;460;48.734;9.152;2024-03-23T15:08:56;2.40;;;1.00;;
946;SDS011;460;48.734;9.152;2024-03-23T15:11:22;2.75;;;1.05;;
946;SDS011;460;48.734;9.152;2024-03-23T15:13:49;2.63;;;1.43;;
946;SDS011;460;48.734;9.152;2024-03-23T15:16:16;2.28;;;1.40;;
946;SDS011;460;48.734;9.152;2024-03-23T15:18:44;5.43;;;2.00;;
946;SDS011;460;48.734;9.152;2024-03-23T15:21:11;3.90;;;1.90;;
946;SDS011;460;48.734;9.152;2024-03-23T15:23:39;4.43;;;1.90;;
946;SDS011;460;48.734;9.152;2024-03-23T15:26:09;1.90;;;1.00;;
946;SDS011;460;48.734;9.152;2024-03-23T15:28:35;3.10;;;1.33;;
946;SDS011;460;48.734;9.152;2024-03-23T15:31:06;2.10;;;1.63;;
946;SDS011;460;48.734;9.152;2024-03-23T15:33:44;4.17;;;1.50;;
946;SDS011;460;48.734;9.152;2024-03-23T15:36:10;2.10;;;1.47;;
946;SDS011;460;48.734;9.152;2024-03-23T15:38:37;2.20;;;1.30;;
946;SDS011;460;48.734;9.152;2024-03-23T15:41:04;1.80;;;1.70;;
946;SDS011;460;48.734;9.152;2024-03-23T15:43:30;1.43;;;0.83;;
946;SDS011;460;48.734;9.152;2024-03-23T15:45:57;2.80;;;1.53;;
946;SDS011;460;48.734;9.152;2024-03-23T15:48:24;2.60;;;1.47;;
946;SDS011;460;48.734;9.152;2024-03-23T15:50:53;4.80;;;1.30;;
946;SDS011;460;48.734;9.152;2024-03-23T15:53:20;1.47;;;1.00;;
946;SDS011;460;48.734;9.152;2024-03-23T15:55:52;1.33;;;1.23;;
946;SDS011;460;48.734;9.152;2024-03-23T15:58:18;1.20;;;1.10;;
946;SDS011;460;48.734;9.152;2024-03-23T16:00:45;1.70;;;1.20;;
946;SDS011;460;48.734;9.152;2024-03-23T16:03:11;1.63;;;0.97;;
946;SDS011;460;48.734;9.152;2024-03-23T16:05:38;2.07;;;1.17;;
946;SDS011;460;48.734;9.152;2024-03-23T16:08:10;4.60;;;2.17;;
946;SDS011;460;48.734;9.152;2024-03-23T16:10:39;2.80;;;2.50;;
946;SDS011;460;48.734;9.152;2024-03-23T16:13:05;5.50;;;1.90;;
946;SDS011;460;48.734;9.152;2024-03-23T16:15:31;1.37;;;1.13;;
946;SDS011;460;48.734;9.152;2024-03-23T16:17:57;1.33;;;0.73;;
946;SDS011;460;48.734;9.152;2024-03-23T16:20:24;6.70;;;2.10;;
946;SDS011;460;48.734;9.152;2024-03-23T16:22:50;1.17;;;1.00;;
946;SDS011;460;48.734;9.152;2024-03-23T16:25:18;5.32;;;1.35;;
946;SDS011;460;48.734;9.152;2024-03-23T16:27:44;1.90;;;0.80;;
946;SDS011;460;48.734;9.152;2024-03-23T16:30:11;5.70;;;0.90;;
946;SDS011;460;48.734;9.152;2024-03-23T16:32:38;1.05;;;0.85;;
946;SDS011;460;48.734;9.152;2024-03-23T16:35:05;1.10;;;0.75;;
946;SDS011;460;48.734;9.152;2024-03-23T16:37:34;0.63;;;0.63;;
946;SDS011;460;48.734;9.152;2024-03-23T16:40:01;0.80;;;0.80;;
946;SDS011;460;48.734;9.152;2024-03-23T16:42:28;1.30;;;0.93;;